Time;durP1;ratioP1;P1;durP2;ratioP2;P2;SDS_P1;SDS_P2;PMS_P1;PMS_P2;Temp;Humidity;BMP_temperature;BMP_pressure;BME280_temperature;BME280_humidity;BME280_pressure;Samples;Min_cycle;Max_cycle;Signal;HPM_P1;HPM_P2
2023/10/10 00:01:44;;;;;;;6.88;4.57;;;15.80;99.90;;;;;;5067565;28;20040;-48
2023/10/10 00:04:13;;;;;;;7.25;4.65;;;15.80;99.90;;;;;;5070542;28;20109;-48
2023/10/10 00:06:42;;;;;;;8.85;4.85;;;15.80;99.90;;;;;;5066704;28;20064;-49
2023/10/10 00:09:11;;;;;;;10.85;5.05;;;15.80;99.90;;;;;;5070148;28;20033;-50
2023/10/10 00:11:45;;;;;;;7.25;4.80;;;15.80;99.90;;;;;;5067416;28;20072;-50
2023/10/10 00:14:19;;;;;;;7.88;4.53;;;15.80;99.90;;;;;;5061130;28;20048;-49
2023/10/10 00:16:54;;;;;;;6.97;4.68;;;15.80;99.90;;;;;;5069059;28;20517;-48
2023/10/10 00:19:28;;;;;;;8.02;5.03;;;15.80;99.90;;;;;;5050576;28;20048;-48
2023/10/10 00:21:54;;;;;;;9.43;4.63;;;15.80;99.90;;;;;;5065440;28;20128;-51
2023/10/10 00:24:21;;;;;;;5.65;4.47;;;15.80;99.90;;;;;;5063461;28;20045;-48
2023/10/10 00:26:47;;;;;;;9.35;4.50;;;15.80;99.90;;;;;;5051036;28;20123;-47
2023/10/10 00:29:13;;;;;;;9.85;4.80;;;15.90;99.90;;;;;;5070964;28;20045;-48
2023/10/10 00:31:43;;;;;;;9.93;5.00;;;15.80;99.90;;;;;;5061258;28;20505;-49
2023/10/10 00:34:09;;;;;;;9.30;4.88;;;15.80;99.90;;;;;;5071195;28;20123;-49
2023/10/10 00:36:36;;;;;;;9.77;4.55;;;15.80;99.90;;;;;;5060684;28;20146;-48
2023/10/10 00:42:00;;;;;;;9.77;5.03;;;15.90;99.90;;;;;;5070971;28;20054;-50
2023/10/10 00:44:27;;;;;;;9.10;4.28;;;15.90;99.90;;;;;;5069273;28;20079;-48
2023/10/10 00:46:55;;;;;;;6.70;4.38;;;15.90;99.90;;;;;;5068399;28;20044;-51
2023/10/10 00:49:26;;;;;;;9.52;4.95;;;15.90;99.90;;;;;;5063124;28;20037;-51
2023/10/10 00:51:54;;;;;;;8.05;4.65;;;15.90;99.90;;;;;;5051549;28;20040;-49
2023/10/10 00:56:55;;;;;;;6.28;4.00;;;15.90;99.90;;;;;;5068610;28;20524;-51
2023/10/10 00:59:34;;;;;;;5.32;3.83;;;15.80;99.90;;;;;;5055869;28;20048;-50
2023/10/10 01:02:03;;;;;;;6.63;4.35;;;15.80;99.90;;;;;;5059287;28;20502;-48
2023/10/10 01:04:35;;;;;;;7.68;4.40;;;15.80;99.90;;;;;;5049925;28;20661;-48
2023/10/10 01:07:08;;;;;;;8.88;4.30;;;15.90;99.90;;;;;;5042512;28;20049;-50
2023/10/10 01:09:51;;;;;;;6.63;4.07;;;15.90;99.90;;;;;;5069615;28;20044;-49
2023/10/10 01:12:17;;;;;;;9.50;4.80;;;15.80;99.90;;;;;;5055339;28;20128;-50
2023/10/10 01:14:43;;;;;;;6.40;4.55;;;15.80;99.90;;;;;;5054663;28;20120;-50
2023/10/10 01:17:12;;;;;;;9.40;4.47;;;15.80;99.90;;;;;;5050864;28;20087;-47
2023/10/10 01:19:37;;;;;;;7.95;4.47;;;15.90;99.90;;;;;;5063800;28;20059;-49
2023/10/10 01:22:04;;;;;;;10.38;4.45;;;15.80;99.90;;;;;;5069464;28;20407;-51
2023/10/10 01:24:31;;;;;;;8.13;5.30;;;15.80;99.90;;;;;;5070276;28;20048;-51
2023/10/10 01:27:03;;;;;;;9.70;5.10;;;15.90;99.90;;;;;;5070526;28;20059;-49
2023/10/10 01:29:40;;;;;;;8.00;5.18;;;15.80;99.90;;;;;;5070174;28;20062;-51
2023/10/10 01:32:07;;;;;;;7.30;5.30;;;15.80;99.90;;;;;;5069742;28;20318;-51
2023/10/10 01:34:43;;;;;;;8.20;5.30;;;15.80;99.90;;;;;;5069983;28;20053;-51
2023/10/10 01:37:20;;;;;;;8.15;5.05;;;15.80;99.90;;;;;;5070553;28;20684;-48
2023/10/10 01:39:53;;;;;;;7.93;4.75;;;15.80;99.90;;;;;;5070536;28;20053;-49
2023/10/10 01:42:30;;;;;;;9.57;5.53;;;15.80;99.90;;;;;;5068731;28;20147;-49
2023/10/10 01:44:57;;;;;;;6.97;5.15;;;15.80;99.90;;;;;;5061318;28;20411;-48
2023/10/10 01:47:26;;;;;;;7.35;5.20;;;15.80;99.90;;;;;;5062377;28;20045;-49
2023/10/10 01:49:55;;;;;;;9.60;5.30;;;15.80;99.90;;;;;;5069810;28;20044;-48
2023/10/10 01:52:21;;;;;;;8.38;4.50;;;15.80;99.90;;;;;;5068774;28;20044;-48
2023/10/10 01:54:52;;;;;;;9.45;5.70;;;15.80;99.90;;;;;;5057437;28;20068;-50
2023/10/10 01:57:23;;;;;;;6.72;5.28;;;15.70;99.90;;;;;;5055098;28;20090;-48
2023/10/10 01:59:55;;;;;;;7.93;5.45;;;15.70;99.90;;;;;;5070593;28;20123;-48
2023/10/10 02:02:23;;;;;;;8.27;5.60;;;15.70;99.90;;;;;;5073183;28;20426;-48
2023/10/10 02:04:52;;;;;;;5.97;5.38;;;15.70;99.90;;;;;;5073609;28;20495;-48
2023/10/10 02:07:23;;;;;;;8.85;5.25;;;15.70;99.90;;;;;;5073280;28;20138;-50
2023/10/10 02:12:38;;;;;;;8.43;5.43;;;15.70;99.90;;;;;;5058926;28;20044;-47
2023/10/10 02:15:11;;;;;;;7.38;5.32;;;15.70;99.90;;;;;;5067700;28;20075;-48
2023/10/10 02:17:39;;;;;;;7.25;5.30;;;15.70;99.90;;;;;;5066630;28;20052;-47
2023/10/10 02:22:52;;;;;;;6.95;4.93;;;15.70;99.90;;;;;;5058208;28;20101;-47
2023/10/10 02:27:55;;;;;;;8.63;4.50;;;15.70;99.90;;;;;;5068115;28;20048;-49
2023/10/10 02:30:37;;;;;;;7.95;5.32;;;15.70;99.90;;;;;;5054171;28;20045;-48
2023/10/10 02:35:55;;;;;;;6.68;4.55;;;15.50;99.90;;;;;;5053152;28;20084;-49
2023/10/10 02:38:33;;;;;;;5.65;4.72;;;15.50;99.90;;;;;;5060255;28;20047;-50
2023/10/10 02:46:38;;;;;;;4.55;4.10;;;15.50;99.90;;;;;;5053408;28;19923;-49
2023/10/10 02:49:12;;;;;;;5.57;3.83;;;15.40;99.90;;;;;;5052881;28;20387;-50
2023/10/10 02:51:48;;;;;;;6.22;3.58;;;15.30;99.90;;;;;;5052383;28;20535;-49
2023/10/10 02:59:51;;;;;;;5.50;4.30;;;15.20;99.90;;;;;;5072071;28;20059;-47
2023/10/10 03:02:28;;;;;;;6.30;4.70;;;15.20;99.90;;;;;;5070855;28;20376;-51
2023/10/10 03:07:29;;;;;;;9.60;5.10;;;15.20;99.90;;;;;;5072529;28;20509;-50
2023/10/10 03:12:50;;;;;;;7.85;5.18;;;15.10;99.90;;;;;;5052314;28;20114;-47
2023/10/10 03:20:25;;;;;;;10.38;6.22;;;15.00;99.90;;;;;;5064334;28;20397;-49
2023/10/10 03:25:47;;;;;;;11.63;8.07;;;14.90;99.90;;;;;;5070843;28;20126;-49
2023/10/10 03:28:29;;;;;;;;;;;15.20;99.90;;;;;;5056260;28;20060;-50
2023/10/10 03:33:43;;;;;;;10.75;8.20;;;14.90;99.90;;;;;;5052258;28;20102;-48
2023/10/10 05:25:25;;;;;;;19.77;16.70;;;15.20;99.90;;;;;;5068259;28;20067;-51
2023/10/10 05:27:52;;;;;;;21.25;18.40;;;14.80;99.90;;;;;;5057539;28;20045;-49
2023/10/10 05:30:23;;;;;;;25.85;18.77;;;14.80;99.90;;;;;;5055647;28;20514;-51
2023/10/10 05:33:04;;;;;;;23.13;17.55;;;14.90;99.90;;;;;;5069046;28;20039;-50
2023/10/10 05:35:35;;;;;;;27.50;19.02;;;14.80;99.90;;;;;;5070341;28;20075;-50
2023/10/10 05:38:01;;;;;;;24.60;19.30;;;14.70;99.90;;;;;;5070683;28;20444;-50
2023/10/10 05:40:27;;;;;;;24.40;19.55;;;14.90;99.90;;;;;;5073936;28;20075;-49
2023/10/10 05:42:55;;;;;;;23.42;19.00;;;14.80;99.90;;;;;;5070217;28;20804;-48
2023/10/10 05:45:22;;;;;;;25.75;20.42;;;15.00;99.90;;;;;;5053772;28;20056;-49
2023/10/10 05:47:48;;;;;;;25.90;19.08;;;14.70;99.90;;;;;;5063824;28;20467;-50
2023/10/10 05:50:14;;;;;;;24.40;19.42;;;15.00;99.90;;;;;;5068410;28;20125;-47
2023/10/10 05:52:40;;;;;;;26.00;19.92;;;15.10;99.90;;;;;;5056122;28;20056;-51
2023/10/10 05:55:10;;;;;;;24.83;19.98;;;15.00;99.90;;;;;;5073917;28;20438;-51
2023/10/10 05:57:42;;;;;;;24.77;19.08;;;14.90;99.90;;;;;;5068450;28;20064;-49
2023/10/10 06:00:13;;;;;;;21.58;19.10;;;15.00;99.90;;;;;;5072454;28;20439;-51
2023/10/10 06:02:45;;;;;;;25.50;19.75;;;15.20;99.90;;;;;;5070726;28;20040;-47
2023/10/10 06:05:12;;;;;;;22.30;18.95;;;15.20;99.90;;;;;;5071955;28;20120;-48
2023/10/10 06:07:42;;;;;;;22.70;18.60;;;15.20;99.90;;;;;;5072146;28;20127;-49
2023/10/10 06:10:14;;;;;;;23.00;18.63;;;15.30;99.90;;;;;;5054843;28;20103;-47
2023/10/10 06:12:40;;;;;;;20.90;18.00;;;15.10;99.90;;;;;;5058235;28;20040;-51
2023/10/10 06:15:06;;;;;;;21.90;18.55;;;15.10;99.90;;;;;;5070596;28;20047;-50
2023/10/10 06:17:33;;;;;;;24.33;21.65;;;15.10;99.90;;;;;;5070995;28;20094;-49
2023/10/10 06:20:00;;;;;;;28.85;20.80;;;15.10;99.90;;;;;;5064606;28;20472;-48
2023/10/10 06:22:29;;;;;;;23.27;19.15;;;15.20;99.90;;;;;;5073794;28;20104;-48
2023/10/10 06:24:59;;;;;;;22.15;18.13;;;15.30;99.90;;;;;;5072651;28;20383;-49
2023/10/10 06:27:36;;;;;;;26.30;18.88;;;15.40;99.90;;;;;;5062460;28;20044;-51
2023/10/10 06:30:05;;;;;;;26.92;19.70;;;15.30;99.90;;;;;;5070201;28;20040;-48
2023/10/10 06:32:31;;;;;;;21.90;18.88;;;15.40;99.90;;;;;;5053306;28;20044;-48
2023/10/10 06:37:53;;;;;;;22.10;18.27;;;15.50;99.90;;;;;;5056063;28;20195;-51
2023/10/10 06:40:25;;;;;;;22.75;18.63;;;15.50;99.90;;;;;;5064314;28;20443;-48
2023/10/10 06:42:56;;;;;;;24.05;19.30;;;15.60;99.90;;;;;;5055319;28;20479;-48
2023/10/10 06:45:26;;;;;;;25.63;19.30;;;15.70;99.90;;;;;;5055707;28;20056;-49
2023/10/10 06:47:54;;;;;;;25.98;19.52;;;15.70;99.90;;;;;;5064288;28;20041;-48
2023/10/10 06:50:23;;;;;;;27.70;20.73;;;15.80;99.90;;;;;;5065196;28;20526;-50
2023/10/10 06:52:55;;;;;;;27.98;20.48;;;15.80;99.90;;;;;;5056521;28;20102;-51
2023/10/10 06:55:22;;;;;;;26.27;20.02;;;15.90;99.90;;;;;;5065598;28;20044;-47
2023/10/10 06:58:01;;;;;;;25.13;20.30;;;15.90;99.90;;;;;;5071192;28;20045;-46
2023/10/10 07:00:28;;;;;;;29.92;21.23;;;15.90;99.90;;;;;;5062666;28;20060;-48
2023/10/10 07:02:56;;;;;;;28.58;23.75;;;16.00;99.90;;;;;;5057604;28;20079;-47
2023/10/10 07:05:26;;;;;;;24.77;21.13;;;16.00;99.90;;;;;;5066987;28;20166;-48
2023/10/10 07:07:58;;;;;;;28.30;23.02;;;16.10;99.90;;;;;;5059530;28;20120;-47
2023/10/10 07:10:33;;;;;;;31.45;25.88;;;16.10;99.90;;;;;;5061013;28;20037;-48
2023/10/10 07:13:00;;;;;;;39.20;32.28;;;16.20;99.90;;;;;;5069655;28;20040;-48
2023/10/10 07:15:33;;;;;;;40.63;31.60;;;16.30;99.90;;;;;;5058822;28;20057;-47
2023/10/10 07:18:08;;;;;;;46.30;34.40;;;16.30;99.90;;;;;;5066083;28;20363;-47
2023/10/10 07:23:22;;;;;;;45.05;34.85;;;16.30;99.90;;;;;;5066679;28;20061;-49
2023/10/10 07:26:00;;;;;;;48.05;35.58;;;16.40;99.90;;;;;;5070102;28;20043;-50
2023/10/10 07:28:27;;;;;;;48.25;35.75;;;16.40;99.90;;;;;;5063785;28;20045;-51
2023/10/10 07:30:54;;;;;;;48.38;36.80;;;16.40;99.90;;;;;;5072391;28;20053;-49
2023/10/10 07:33:23;;;;;;;48.75;37.38;;;16.40;99.90;;;;;;5062050;28;20089;-48
2023/10/10 07:35:55;;;;;;;51.78;35.63;;;16.40;99.90;;;;;;5063980;28;20056;-48
2023/10/10 07:38:28;;;;;;;51.17;37.47;;;16.40;99.90;;;;;;5072154;28;20037;-49
2023/10/10 07:40:53;;;;;;;50.90;35.88;;;16.50;99.90;;;;;;5055928;28;20161;-48
2023/10/10 07:43:20;;;;;;;54.17;38.35;;;16.50;99.90;;;;;;5069321;28;20465;-48
2023/10/10 07:45:47;;;;;;;52.47;38.83;;;16.50;99.90;;;;;;5070679;28;20044;-48
2023/10/10 07:50:48;;;;;;;52.53;38.83;;;16.50;99.90;;;;;;5065214;28;20458;-49
2023/10/10 07:53:15;;;;;;;50.85;37.97;;;16.40;99.90;;;;;;5071606;28;20036;-49
2023/10/10 07:56:00;;;;;;;57.47;40.75;;;16.40;99.90;;;;;;5064455;28;20119;-49
2023/10/10 07:58:42;;;;;;;56.03;41.43;;;16.40;99.90;;;;;;5068175;28;20102;-48
2023/10/10 08:01:10;;;;;;;53.47;39.47;;;16.40;99.90;;;;;;5071990;28;20490;-49
2023/10/10 08:03:36;;;;;;;52.85;39.35;;;16.40;99.90;;;;;;5064363;28;20052;-50
2023/10/10 08:06:02;;;;;;;53.38;38.38;;;16.40;99.90;;;;;;5059237;28;20040;-51
2023/10/10 08:08:28;;;;;;;55.58;40.53;;;16.40;99.90;;;;;;5067377;28;20067;-48
2023/10/10 08:10:54;;;;;;;57.70;41.22;;;16.40;99.90;;;;;;5058990;28;20475;-47
2023/10/10 08:13:22;;;;;;;54.25;40.22;;;16.50;99.90;;;;;;5054443;28;20530;-50
2023/10/10 08:15:56;;;;;;;51.97;37.80;;;16.50;99.90;;;;;;5061117;28;20048;-50
2023/10/10 08:21:12;;;;;;;57.53;40.97;;;16.60;99.90;;;;;;5059129;28;20053;-50
2023/10/10 08:23:43;;;;;;;54.30;40.80;;;16.60;99.90;;;;;;5065566;28;20045;-49
2023/10/10 08:26:10;;;;;;;57.13;40.85;;;16.70;99.90;;;;;;5056528;28;20051;-51
2023/10/10 08:28:36;;;;;;;55.85;40.90;;;16.70;99.90;;;;;;5065213;28;20120;-48
2023/10/10 08:31:01;;;;;;;59.08;42.20;;;16.70;99.90;;;;;;5053080;28;20124;-48
2023/10/10 08:33:32;;;;;;;57.17;42.90;;;16.80;99.90;;;;;;5051505;28;20032;-51
2023/10/10 08:35:59;;;;;;;56.55;41.45;;;16.90;99.90;;;;;;5061486;28;20048;-48
2023/10/10 08:38:24;;;;;;;53.63;41.88;;;16.90;99.90;;;;;;5061630;28;20040;-48
2023/10/10 08:40:57;;;;;;;55.78;42.22;;;17.10;99.90;;;;;;5065984;28;20453;-50
2023/10/10 08:43:28;;;;;;;51.72;40.80;;;17.10;99.90;;;;;;5062308;28;20042;-48
2023/10/10 08:45:56;;;;;;;49.72;40.15;;;17.30;99.90;;;;;;5061820;28;20041;-47
2023/10/10 08:48:26;;;;;;;51.72;40.97;;;17.20;99.90;;;;;;5061770;28;20045;-48
2023/10/10 08:50:55;;;;;;;48.05;38.85;;;17.30;99.90;;;;;;5065002;28;20083;-49
2023/10/10 08:53:24;;;;;;;49.90;40.30;;;17.40;99.90;;;;;;5070917;28;20040;-50
2023/10/10 08:55:56;;;;;;;49.10;40.17;;;;;;;;;;5071619;28;20044;-50
2023/10/10 08:58:22;;;;;;;47.88;39.35;;;17.60;99.90;;;;;;5064187;28;20083;-48
2023/10/10 09:00:51;;;;;;;46.47;38.00;;;17.70;99.90;;;;;;5063717;28;20144;-47
2023/10/10 09:03:17;;;;;;;47.38;37.55;;;17.80;99.90;;;;;;5067850;28;20395;-47
2023/10/10 09:05:43;;;;;;;46.80;37.40;;;17.90;99.90;;;;;;5066317;28;20040;-49
2023/10/10 09:08:16;;;;;;;43.95;37.65;;;18.00;99.90;;;;;;5070775;28;20040;-50
2023/10/10 09:10:46;;;;;;;43.15;35.70;;;;;;;;;;5055467;28;20052;-47
2023/10/10 09:13:12;;;;;;;41.60;35.78;;;18.40;99.90;;;;;;5063651;28;20052;-49
2023/10/10 09:15:40;;;;;;;41.38;33.90;;;18.60;99.90;;;;;;5062556;28;20123;-50
2023/10/10 09:18:22;;;;;;;39.38;35.08;;;18.60;99.90;;;;;;5070060;28;20060;-50
2023/10/10 09:20:48;;;;;;;41.45;33.20;;;18.70;99.90;;;;;;5075675;28;20064;-47
2023/10/10 09:23:24;;;;;;;42.83;34.90;;;18.70;99.90;;;;;;5076326;28;20040;-47
2023/10/10 09:25:57;;;;;;;39.25;34.13;;;18.70;99.90;;;;;;5070603;28;20045;-48
2023/10/10 09:28:30;;;;;;;38.10;32.83;;;18.90;99.90;;;;;;5065316;28;20040;-50
2023/10/10 09:31:03;;;;;;;37.35;32.95;;;18.90;99.90;;;;;;5073953;28;20041;-48
2023/10/10 09:33:33;;;;;;;39.38;32.10;;;19.00;99.90;;;;;;5070281;28;20091;-47
2023/10/10 09:36:08;;;;;;;41.25;33.17;;;19.00;99.90;;;;;;5059514;28;20068;-48
2023/10/10 09:38:57;;;;;;;38.33;33.25;;;19.10;99.90;;;;;;5060231;28;20048;-47
2023/10/10 09:55:25;;;;;;;39.55;33.00;;;19.50;99.90;;;;;;5054015;28;20402;-47
2023/10/10 10:09:08;;;;;;;43.45;34.28;;;19.60;99.90;;;;;;5060244;28;20060;-47
2023/10/10 10:12:19;;;;;;;38.08;33.70;;;19.60;99.90;;;;;;5054652;28;20360;-49
2023/10/10 10:14:56;;;;;;;40.35;31.88;;;19.60;99.90;;;;;;5039365;28;20106;-47
2023/10/10 10:17:53;;;;;;;38.55;32.53;;;19.70;99.90;;;;;;5054044;28;20071;-47
2023/10/10 10:21:04;;;;;;;37.47;31.30;;;19.80;99.90;;;;;;5051445;28;20084;-47
2023/10/10 10:23:33;;;;;;;39.47;32.05;;;19.90;99.90;;;;;;5072195;28;20036;-47
2023/10/10 10:26:08;;;;;;;38.33;31.85;;;20.00;99.90;;;;;;5058805;28;20045;-49
2023/10/10 10:28:37;;;;;;;38.15;30.48;;;20.00;99.90;;;;;;5053541;28;20080;-51
2023/10/10 10:31:08;;;;;;;40.90;31.08;;;20.20;99.90;;;;;;5065038;28;20435;-49
2023/10/10 10:33:36;;;;;;;37.83;30.75;;;20.20;99.90;;;;;;5065216;28;20036;-48
2023/10/10 10:36:06;;;;;;;36.67;31.67;;;20.20;99.90;;;;;;5064765;28;20386;-48
2023/10/10 10:38:39;;;;;;;36.95;31.85;;;20.20;99.90;;;;;;5060079;28;20126;-50
2023/10/10 10:41:07;;;;;;;33.53;29.55;;;20.20;99.90;;;;;;5062304;28;20044;-49
2023/10/10 10:43:41;;;;;;;35.95;29.80;;;20.10;99.90;;;;;;5062373;28;20041;-49
2023/10/10 10:46:27;;;;;;;36.58;30.77;;;20.00;99.90;;;;;;5057893;28;20052;-48
2023/10/10 10:49:01;;;;;;;34.35;29.58;;;20.20;99.90;;;;;;5060373;28;20065;-48
2023/10/10 10:51:41;;;;;;;37.90;29.33;;;20.20;99.90;;;;;;5063095;28;20051;-51
2023/10/10 10:54:07;;;;;;;35.70;29.55;;;20.30;99.90;;;;;;5062933;28;20139;-48
2023/10/10 10:59:35;;;;;;;39.03;29.75;;;;;;;;;;5058406;28;20130;-47
2023/10/10 11:02:00;;;;;;;38.10;30.17;;;20.50;99.90;;;;;;5061799;28;20506;-49
2023/10/10 11:07:03;;;;;;;34.97;27.20;;;;;;;;;;5065616;28;20063;-48
2023/10/10 11:09:30;;;;;;;34.22;27.42;;;20.80;99.90;;;;;;5061029;28;20457;-48
2023/10/10 11:12:02;;;;;;;34.80;27.35;;;20.90;99.90;;;;;;5060245;28;20037;-50
2023/10/10 11:14:44;;;;;;;30.83;26.70;;;20.90;99.90;;;;;;5056397;28;20084;-50
2023/10/10 11:17:17;;;;;;;32.53;27.67;;;20.90;99.90;;;;;;5059668;28;20049;-48
2023/10/10 11:19:43;;;;;;;31.63;26.05;;;21.20;99.90;;;;;;5067725;28;20047;-48
2023/10/10 11:22:55;;;;;;;33.30;26.23;;;21.30;99.90;;;;;;5070460;28;20414;-48
2023/10/10 11:25:05;;;;;;;32.15;25.80;;;21.30;99.90;;;;;;5061947;28;20048;-48
2023/10/10 11:27:44;;;;;;;31.50;26.13;;;21.80;99.90;;;;;;5062352;28;20087;-49
2023/10/10 11:30:24;;;;;;;30.88;25.10;;;21.80;99.90;;;;;;5062516;28;20094;-49
2023/10/10 11:32:59;;;;;;;30.38;24.33;;;22.00;99.90;;;;;;5059298;28;20036;-48
2023/10/10 11:35:26;;;;;;;26.63;22.50;;;22.20;99.90;;;;;;5061714;28;20051;-46
2023/10/10 11:38:15;;;;;;;28.20;23.15;;;22.40;99.90;;;;;;5064086;28;20040;-47
2023/10/10 11:40:52;;;;;;;28.92;23.25;;;;;;;;;;5059448;28;20051;-47
2023/10/10 11:43:20;;;;;;;26.75;22.17;;;22.50;99.90;;;;;;5060635;28;20371;-50
2023/10/10 11:45:51;;;;;;;24.48;20.40;;;22.50;99.90;;;;;;5066871;28;20084;-48
2023/10/10 11:48:17;;;;;;;25.65;21.45;;;22.60;99.90;;;;;;5072863;28;20036;-48
2023/10/10 11:50:51;;;;;;;28.88;22.20;;;22.50;99.90;;;;;;5060851;28;20478;-50
2023/10/10 11:53:23;;;;;;;23.23;20.17;;;22.40;99.90;;;;;;5072365;28;20041;-47
2023/10/10 11:55:52;;;;;;;26.27;19.52;;;22.50;99.90;;;;;;5073395;28;20051;-47
2023/10/10 11:58:18;;;;;;;24.38;18.50;;;22.40;99.90;;;;;;5071785;28;20071;-48
2023/10/10 12:01:11;;;;;;;23.77;18.87;;;22.40;99.90;;;;;;5071735;28;20440;-47
2023/10/10 12:06:26;;;;;;;20.48;17.88;;;22.40;99.90;;;;;;5071240;28;20076;-47
2023/10/10 12:08:53;;;;;;;23.38;17.77;;;22.40;99.90;;;;;;5050511;28;20056;-47
2023/10/10 12:11:20;;;;;;;19.10;17.08;;;22.50;99.90;;;;;;5060257;28;20097;-47
2023/10/10 12:13:50;;;;;;;20.70;16.75;;;22.50;99.90;;;;;;5070875;28;20146;-47
2023/10/10 12:16:17;;;;;;;22.13;17.02;;;22.60;99.90;;;;;;5071710;28;20043;-47
2023/10/10 12:18:52;;;;;;;19.63;15.45;;;22.70;99.90;;;;;;5071678;28;20048;-47
2023/10/10 12:21:20;;;;;;;16.83;15.05;;;22.80;99.90;;;;;;5069915;28;20502;-47
2023/10/10 12:23:54;;;;;;;19.02;14.88;;;22.90;99.90;;;;;;5069148;28;20037;-49
2023/10/10 12:26:22;;;;;;;17.85;13.40;;;22.90;99.90;;;;;;5052960;28;20036;-47
2023/10/10 12:28:48;;;;;;;20.92;14.35;;;22.80;99.90;;;;;;5051560;28;20071;-48
2023/10/10 12:31:17;;;;;;;17.30;13.90;;;22.80;99.90;;;;;;5051465;28;20040;-49
2023/10/10 12:33:48;;;;;;;23.33;13.60;;;22.90;99.90;;;;;;5051176;28;20043;-47
2023/10/10 12:36:17;;;;;;;18.15;13.60;;;22.90;99.90;;;;;;5049882;28;20060;-48
2023/10/10 12:38:43;;;;;;;20.83;13.85;;;22.90;99.90;;;;;;5051116;28;20068;-50
2023/10/10 12:41:11;;;;;;;18.27;14.10;;;23.00;99.90;;;;;;5058305;28;20079;-48
2023/10/10 12:43:38;;;;;;;17.13;13.45;;;23.00;99.90;;;;;;5070984;28;20032;-48
2023/10/10 12:46:09;;;;;;;18.95;12.98;;;23.00;99.90;;;;;;5071812;28;20401;-47
2023/10/10 12:48:41;;;;;;;16.23;12.35;;;22.90;99.90;;;;;;5071572;28;20053;-47
2023/10/10 12:51:10;;;;;;;20.55;11.77;;;22.90;99.90;;;;;;5070372;28;20066;-48
2023/10/10 12:53:40;;;;;;;14.20;12.68;;;23.00;99.90;;;;;;5055822;28;20040;-49
2023/10/10 12:56:16;;;;;;;17.48;13.57;;;23.00;99.90;;;;;;5051401;28;20045;-48
2023/10/10 12:58:51;;;;;;;19.17;12.93;;;22.70;99.90;;;;;;5051995;28;20048;-47
2023/10/10 13:01:22;;;;;;;17.42;12.77;;;22.50;99.90;;;;;;5056052;28;20044;-48
2023/10/10 13:03:48;;;;;;;24.20;13.57;;;22.40;99.90;;;;;;5057723;28;20045;-47
2023/10/10 13:06:14;;;;;;;17.65;12.52;;;22.20;99.90;;;;;;5051432;28;20420;-47
2023/10/10 13:11:20;;;;;;;17.83;13.32;;;22.00;99.90;;;;;;5052720;28;20053;-47
2023/10/10 13:13:52;;;;;;;16.70;12.70;;;22.00;99.90;;;;;;5055176;28;20483;-50
2023/10/10 13:16:25;;;;;;;16.10;12.23;;;21.90;99.90;;;;;;5051605;28;20499;-50
2023/10/10 13:18:57;;;;;;;16.05;12.13;;;21.80;99.90;;;;;;5067108;28;20044;-48
2023/10/10 13:21:23;;;;;;;16.38;12.68;;;21.80;99.90;;;;;;5071098;28;20113;-48
2023/10/10 13:23:50;;;;;;;16.55;12.80;;;21.80;99.90;;;;;;5069957;28;20037;-48
2023/10/10 13:26:17;;;;;;;15.10;11.55;;;21.80;99.90;;;;;;5073727;28;20052;-49
2023/10/10 13:28:46;;;;;;;13.55;11.63;;;;;;;;;;5071446;28;20123;-48
2023/10/10 13:31:17;;;;;;;16.50;12.18;;;21.70;99.90;;;;;;5070014;28;20048;-47
2023/10/10 13:33:43;;;;;;;18.58;12.52;;;21.60;99.90;;;;;;5070713;28;20487;-50
2023/10/10 13:36:15;;;;;;;18.60;12.38;;;;;;;;;;5071031;28;20575;-47
2023/10/10 13:38:48;;;;;;;16.48;11.57;;;21.60;99.90;;;;;;5071252;28;20494;-47
2023/10/10 13:41:18;;;;;;;19.35;12.48;;;21.60;99.90;;;;;;5070977;28;20055;-49
2023/10/10 13:43:46;;;;;;;16.90;13.38;;;21.60;99.90;;;;;;5071004;28;20041;-48
2023/10/10 13:46:13;;;;;;;18.42;12.85;;;21.60;99.90;;;;;;5070940;28;20053;-47
2023/10/10 13:48:39;;;;;;;19.17;12.55;;;21.60;99.90;;;;;;5069460;28;20045;-47
2023/10/10 13:51:07;;;;;;;17.30;12.20;;;21.60;99.90;;;;;;5051002;28;20151;-47
2023/10/10 13:53:34;;;;;;;28.48;13.45;;;21.60;99.90;;;;;;5051019;28;20061;-50
2023/10/10 13:56:03;;;;;;;18.93;13.07;;;21.60;99.90;;;;;;5052073;28;20091;-48
2023/10/10 13:58:29;;;;;;;13.95;11.82;;;21.60;99.90;;;;;;5066344;28;20550;-47
2023/10/10 14:00:55;;;;;;;15.57;12.55;;;21.60;99.90;;;;;;5074279;28;20129;-47
2023/10/10 14:03:35;;;;;;;18.58;12.63;;;21.60;99.90;;;;;;5073352;28;20044;-47
2023/10/10 14:06:10;;;;;;;17.30;12.30;;;21.60;99.90;;;;;;5060332;28;20378;-50
2023/10/10 14:08:36;;;;;;;17.52;11.82;;;21.60;99.90;;;;;;5074314;28;20528;-50
2023/10/10 14:11:03;;;;;;;17.97;11.93;;;21.50;99.90;;;;;;5072426;28;20056;-48
2023/10/10 14:13:32;;;;;;;15.38;12.10;;;21.50;99.90;;;;;;5054845;28;20182;-47
2023/10/10 14:15:58;;;;;;;16.27;11.65;;;21.50;99.90;;;;;;5074309;28;20045;-48
2023/10/10 14:18:26;;;;;;;20.38;12.05;;;21.40;99.90;;;;;;5074308;28;20352;-50
2023/10/10 14:20:53;;;;;;;15.50;11.55;;;21.30;99.90;;;;;;5074087;28;20041;-47
2023/10/10 14:23:24;;;;;;;14.48;11.85;;;21.30;99.90;;;;;;5065894;28;20112;-47
2023/10/10 14:25:50;;;;;;;18.92;11.57;;;21.20;99.90;;;;;;5054189;28;20045;-47
2023/10/10 14:28:17;;;;;;;17.70;11.80;;;21.20;99.90;;;;;;5054520;28;20044;-47
2023/10/10 14:30:49;;;;;;;13.43;11.63;;;21.10;99.90;;;;;;5054126;28;20083;-48
2023/10/10 14:33:16;;;;;;;17.13;11.18;;;21.10;99.90;;;;;;5054169;28;20076;-48
2023/10/10 14:35:43;;;;;;;16.15;11.40;;;21.00;99.90;;;;;;5053565;28;20063;-53
2023/10/10 14:38:13;;;;;;;15.77;11.57;;;21.00;99.90;;;;;;5063778;28;20077;-48
2023/10/10 14:40:38;;;;;;;15.00;11.55;;;21.00;99.90;;;;;;5063140;28;20045;-47
2023/10/10 14:43:06;;;;;;;16.00;12.02;;;21.10;99.90;;;;;;5055164;28;20037;-47
2023/10/10 14:45:32;;;;;;;16.88;12.15;;;21.00;99.90;;;;;;5072258;28;20106;-49
2023/10/10 14:47:58;;;;;;;16.10;11.60;;;21.00;99.90;;;;;;5065754;28;20127;-49
2023/10/10 14:50:24;;;;;;;14.02;11.25;;;21.00;99.90;;;;;;5059608;28;20033;-51
2023/10/10 14:52:53;;;;;;;15.95;11.98;;;21.00;99.90;;;;;;5053400;28;20181;-48
2023/10/10 14:55:25;;;;;;;15.68;12.00;;;20.90;99.90;;;;;;5067208;28;20048;-48
2023/10/10 14:57:55;;;;;;;14.55;11.80;;;20.90;99.90;;;;;;5070028;28;20163;-50
2023/10/10 15:00:23;;;;;;;17.80;13.63;;;20.90;99.90;;;;;;5055936;28;20125;-49
2023/10/10 15:02:53;;;;;;;19.35;13.05;;;20.80;99.90;;;;;;5069499;28;20052;-49
2023/10/10 15:05:25;;;;;;;19.45;13.55;;;20.80;99.90;;;;;;5067631;28;20050;-48
2023/10/10 15:07:52;;;;;;;17.40;12.80;;;20.70;99.90;;;;;;5067936;28;20505;-48
2023/10/10 15:10:20;;;;;;;16.63;13.15;;;20.60;99.90;;;;;;5069097;28;20048;-48
2023/10/10 15:12:48;;;;;;;14.90;12.82;;;20.60;99.90;;;;;;5072845;28;20512;-48
2023/10/10 15:15:16;;;;;;;18.33;13.05;;;20.50;99.90;;;;;;5071844;28;20067;-47
2023/10/10 15:17:42;;;;;;;17.88;13.77;;;20.50;99.90;;;;;;5070086;28;20076;-47
2023/10/10 15:20:12;;;;;;;21.33;13.55;;;20.50;99.90;;;;;;5058501;28;20447;-48
2023/10/10 15:22:41;;;;;;;19.13;12.70;;;20.40;99.90;;;;;;5060861;28;20053;-47
2023/10/10 15:25:10;;;;;;;16.25;12.80;;;20.40;99.90;;;;;;5060957;28;20040;-47
2023/10/10 15:27:40;;;;;;;15.85;12.35;;;20.30;99.90;;;;;;5055952;28;20044;-50
2023/10/10 15:30:10;;;;;;;18.08;14.23;;;20.20;99.90;;;;;;5062184;28;20029;-47
2023/10/10 15:32:52;;;;;;;18.50;13.65;;;20.20;99.90;;;;;;5058425;28;20076;-47
2023/10/10 15:35:18;;;;;;;18.95;14.02;;;20.20;99.90;;;;;;5066881;28;20047;-48
2023/10/10 15:37:44;;;;;;;17.38;14.05;;;20.10;99.90;;;;;;5036081;28;20414;-47
2023/10/10 15:40:20;;;;;;;21.33;13.73;;;20.10;99.90;;;;;;5063986;28;20119;-49
2023/10/10 15:42:50;;;;;;;16.70;13.25;;;20.10;99.90;;;;;;5062437;28;20049;-47
2023/10/10 15:45:20;;;;;;;19.40;13.88;;;20.00;99.90;;;;;;5058787;28;20084;-48
2023/10/10 15:47:52;;;;;;;18.55;13.05;;;20.00;99.90;;;;;;5063120;28;20051;-48
2023/10/10 15:50:20;;;;;;;13.85;12.25;;;19.90;99.90;;;;;;5063841;28;20091;-47
2023/10/10 15:52:48;;;;;;;15.63;12.65;;;19.90;99.90;;;;;;5061236;28;20041;-49
2023/10/10 15:55:23;;;;;;;16.17;12.63;;;19.80;99.90;;;;;;5069355;28;20119;-49
2023/10/10 15:57:52;;;;;;;17.58;12.70;;;19.70;99.90;;;;;;5063483;28;20048;-47
2023/10/10 16:00:33;;;;;;;16.65;13.18;;;19.70;99.90;;;;;;5054558;28;20045;-50
2023/10/10 16:02:59;;;;;;;23.63;12.63;;;19.70;99.90;;;;;;5057128;28;20040;-49
2023/10/10 16:05:25;;;;;;;17.27;13.23;;;19.60;99.90;;;;;;5065579;28;20418;-48
2023/10/10 16:07:51;;;;;;;19.40;13.80;;;19.60;99.90;;;;;;5059329;28;20296;-47
2023/10/10 16:10:17;;;;;;;18.65;12.95;;;19.60;99.90;;;;;;5070086;28;20037;-49